Time;durP1;ratioP1;P1;durP2;ratioP2;P2;SDS_P1;SDS_P2;PMS_P1;PMS_P2;Temp;Humidity;BMP_temperature;BMP_pressure;BME280_temperature;BME280_humidity;BME280_pressure;Samples;Min_cycle;Max_cycle;Signal;HPM_P1;HPM_P2
2023/05/02 00:00:52;;;;;;;10.20;5.43;;;;;;;14.19;75.89;94959.41;5071507;28;20201;-89
2023/05/02 00:03:19;;;;;;;5.83;4.97;;;;;;;14.17;75.96;94953.59;5069592;28;20198;-89
2023/05/02 00:05:46;;;;;;;6.93;5.00;;;;;;;14.15;75.58;94952.22;5069349;28;20213;-90
2023/05/02 00:08:12;;;;;;;6.20;5.53;;;;;;;14.13;76.05;94949.88;5069467;28;20204;-89
2023/05/02 00:10:39;;;;;;;7.53;4.93;;;;;;;14.12;76.50;94958.72;5069570;28;20205;-91
2023/05/02 00:13:07;;;;;;;10.87;5.00;;;;;;;13.90;75.81;94902.09;5069609;28;20260;-89
2023/05/02 00:15:35;;;;;;;6.30;4.87;;;;;;;13.88;75.87;94910.16;5069638;28;20206;-89
2023/05/02 00:18:02;;;;;;;8.00;5.07;;;;;;;14.11;76.50;94943.28;5066160;28;20193;-88
2023/05/02 00:20:29;;;;;;;6.17;5.43;;;;;;;14.12;76.45;94944.84;5069696;28;20197;-88
2023/05/02 00:22:56;;;;;;;5.93;5.10;;;;;;;14.01;76.76;94961.38;5069302;28;20282;-84
2023/05/02 00:25:23;;;;;;;6.17;5.00;;;;;;;13.94;76.58;94945.03;5071605;28;20252;-84
2023/05/02 00:27:50;;;;;;;5.77;4.70;;;;;;;14.02;77.60;94965.56;5072762;28;20623;-85
2023/05/02 00:30:17;;;;;;;6.63;4.83;;;;;;;13.98;77.26;94964.44;5071618;28;20205;-85
2023/05/02 00:32:45;;;;;;;14.93;5.67;;;;;;;13.95;77.44;94964.91;5069246;28;20202;-85
2023/05/02 00:35:12;;;;;;;6.30;5.37;;;;;;;13.99;77.82;94959.00;5065390;28;20208;-85
2023/05/02 00:37:39;;;;;;;7.93;4.97;;;;;;;13.94;77.03;94958.09;5072573;28;20205;-85
2023/05/02 00:40:07;;;;;;;5.70;4.90;;;;;;;14.03;77.68;94980.22;5072223;28;20201;-89
2023/05/02 00:42:37;;;;;;;6.33;5.73;;;;;;;13.96;77.83;94972.53;5071807;28;20221;-87
2023/05/02 00:45:05;;;;;;;9.13;5.60;;;;;;;13.93;77.82;94977.41;5071383;28;20209;-87
2023/05/02 00:47:32;;;;;;;7.30;5.37;;;;;;;13.60;77.91;94942.25;5072768;28;20317;-87
2023/05/02 00:50:00;;;;;;;7.30;5.27;;;;;;;13.57;78.46;94937.47;5071566;28;20208;-85
2023/05/02 00:52:31;;;;;;;8.03;5.37;;;;;;;13.78;78.76;94983.09;5067312;28;20706;-85
2023/05/02 00:54:58;;;;;;;6.87;5.60;;;;;;;13.61;78.43;94953.50;5072035;28;20358;-87
2023/05/02 00:57:25;;;;;;;9.07;5.80;;;;;;;13.76;78.63;94969.50;5072931;28;20209;-88
2023/05/02 00:59:52;;;;;;;8.00;5.67;;;;;;;13.86;78.70;94979.34;5072336;28;20781;-84
2023/05/02 01:02:38;;;;;;;8.50;5.47;;;;;;;13.84;78.92;94979.59;5080646;28;20193;-86
2023/05/02 01:05:15;;;;;;;5.97;5.07;;;;;;;13.83;79.24;94980.59;5080600;28;20193;-86
2023/05/02 01:08:11;;;;;;;6.30;5.30;;;;;;;13.82;79.35;94976.41;5085256;28;20197;-86
2023/05/02 01:10:48;;;;;;;6.00;5.40;;;;;;;13.86;79.23;94977.53;5084822;28;20193;-85
2023/05/02 01:13:21;;;;;;;8.13;5.50;;;;;;;13.80;79.93;94978.44;5082615;28;20217;-86
2023/05/02 01:15:51;;;;;;;7.77;5.60;;;;;;;13.74;79.83;94965.53;5084119;28;20288;-86
2023/05/02 01:18:23;;;;;;;7.83;5.50;;;;;;;13.80;79.86;94980.25;5083308;28;21268;-86
2023/05/02 01:20:57;;;;;;;10.60;5.70;;;;;;;13.68;80.21;94956.00;5083770;28;20197;-86
2023/05/02 01:23:30;;;;;;;8.60;5.80;;;;;;;13.67;80.45;94947.34;5083732;28;20209;-87
2023/05/02 01:26:11;;;;;;;6.83;5.37;;;;;;;13.82;80.34;94954.72;5083567;28;20202;-85
2023/05/02 01:28:57;;;;;;;8.67;5.60;;;;;;;13.75;80.54;94960.06;5081838;28;20255;-86
2023/05/02 01:31:26;;;;;;;7.97;5.80;;;;;;;13.73;81.02;94949.06;5084699;28;20216;-86
2023/05/02 01:33:54;;;;;;;6.10;5.50;;;;;;;13.62;81.64;94952.47;5084707;28;20229;-88
2023/05/02 01:36:25;;;;;;;6.57;5.40;;;;;;;13.59;81.95;94953.69;5089014;28;20197;-88
2023/05/02 01:38:54;;;;;;;6.73;5.63;;;;;;;13.39;82.49;94924.53;5085286;28;20215;-88
2023/05/02 01:41:22;;;;;;;5.97;5.33;;;;;;;13.51;82.07;94946.22;5079318;28;20225;-88
2023/05/02 01:43:52;;;;;;;7.43;5.60;;;;;;;13.58;82.39;94964.38;5080748;28;20201;-84
2023/05/02 01:46:20;;;;;;;6.57;5.70;;;;;;;13.49;82.41;94955.31;5084191;28;20193;-84
2023/05/02 01:48:51;;;;;;;6.83;6.13;;;;;;;13.35;82.31;94926.03;5081634;28;20233;-84
2023/05/02 01:51:18;;;;;;;8.40;5.83;;;;;;;13.65;82.40;94978.09;5079286;28;20197;-82
2023/05/02 01:53:48;;;;;;;6.33;5.60;;;;;;;13.30;82.36;94918.09;5080054;28;20243;-83
2023/05/02 01:56:18;;;;;;;5.83;5.20;;;;;;;13.56;82.65;94974.28;5080521;28;20193;-84
2023/05/02 01:58:46;;;;;;;6.77;5.67;;;;;;;13.41;83.79;94958.28;5074789;28;20206;-82
2023/05/02 02:01:15;;;;;;;6.70;5.40;;;;;;;13.47;83.70;94959.97;5076018;28;20197;-82
2023/05/02 02:03:43;;;;;;;7.30;5.77;;;;;;;13.45;83.50;94962.00;5078736;28;20655;-83
2023/05/02 02:06:12;;;;;;;6.13;5.53;;;;;;;13.28;84.59;94968.91;5078836;28;20205;-88
2023/05/02 02:08:39;;;;;;;6.60;5.90;;;;;;;13.06;84.61;94924.31;5081386;28;20214;-87
2023/05/02 02:11:10;;;;;;;7.40;5.37;;;;;;;13.17;85.32;94962.69;5084153;28;20190;-86
2023/05/02 02:13:42;;;;;;;7.20;5.87;;;;;;;13.15;85.40;94956.09;5082105;28;20217;-87
2023/05/02 02:16:12;;;;;;;8.23;5.83;;;;;;;13.18;85.76;94961.66;5081302;28;20205;-87
2023/05/02 02:18:45;;;;;;;7.60;5.93;;;;;;;13.01;86.00;94940.66;5082818;28;20261;-88
2023/05/02 02:21:14;;;;;;;8.70;5.83;;;;;;;13.15;86.17;94953.50;5077239;28;20209;-88
2023/05/02 02:23:44;;;;;;;6.00;5.40;;;;;;;13.14;86.25;94962.34;5071190;28;20201;-89
2023/05/02 02:26:13;;;;;;;8.17;5.60;;;;;;;13.14;85.89;94960.53;5070533;28;20205;-88
2023/05/02 02:28:41;;;;;;;8.07;6.07;;;;;;;12.95;86.54;94932.91;5070780;28;20217;-86
2023/05/02 02:31:08;;;;;;;6.90;5.83;;;;;;;12.99;86.55;94960.94;5073063;28;20205;-90
2023/05/02 02:33:35;;;;;;;7.57;6.20;;;;;;;12.92;87.22;94962.88;5070989;28;20225;-90
2023/05/02 02:36:12;;;;;;;10.33;6.13;;;;;;;12.73;87.02;94932.63;5070304;28;20292;-90
2023/05/02 02:38:43;;;;;;;7.23;5.90;;;;;;;12.67;87.57;94930.16;5067847;28;20205;-91
2023/05/02 02:41:16;;;;;;;7.57;5.93;;;;;;;12.63;87.21;94914.16;5068626;28;20208;-91
2023/05/02 02:43:50;;;;;;;7.03;5.70;;;;;;;12.94;87.67;94968.63;5070045;28;20232;-90
2023/05/02 02:46:30;;;;;;;9.13;6.20;;;;;;;13.02;86.98;94972.72;5069251;28;20204;-91
2023/05/02 02:49:09;;;;;;;10.73;6.63;;;;;;;12.99;87.03;94967.97;5066341;28;20243;-89
2023/05/02 02:51:47;;;;;;;6.97;5.97;;;;;;;12.84;86.94;94939.69;5068006;28;20201;-89
2023/05/02 02:54:22;;;;;;;7.03;6.33;;;;;;;12.95;86.74;94956.41;5068738;28;20216;-91
2023/05/02 02:56:57;;;;;;;6.87;6.00;;;;;;;12.84;86.35;94949.34;5067504;28;20576;-90
2023/05/02 02:59:29;;;;;;;9.07;6.40;;;;;;;12.78;86.84;94942.41;5066651;28;20236;-90
2023/05/02 03:02:03;;;;;;;12.57;6.53;;;;;;;12.96;86.80;94971.81;5065930;28;20210;-92
2023/05/02 03:04:31;;;;;;;9.07;6.17;;;;;;;13.03;86.99;94982.16;5070080;28;20213;-89
2023/05/02 03:07:00;;;;;;;8.77;6.23;;;;;;;13.00;86.92;94985.22;5069251;28;20222;-90
2023/05/02 03:09:29;;;;;;;9.63;6.77;;;;;;;12.90;86.44;94969.31;5066522;28;20205;-89
2023/05/02 03:11:56;;;;;;;7.60;6.47;;;;;;;12.89;86.88;94992.00;5070236;28;20189;-89
2023/05/02 03:14:23;;;;;;;7.70;6.60;;;;;;;12.85;86.86;94998.66;5070697;28;20236;-87
2023/05/02 03:16:50;;;;;;;6.97;6.03;;;;;;;12.76;87.45;95005.22;5066641;28;20209;-85
2023/05/02 03:19:17;;;;;;;10.07;6.77;;;;;;;12.72;87.83;95005.91;5065203;28;20197;-86
2023/05/02 03:21:44;;;;;;;12.37;7.03;;;;;;;12.68;88.42;95008.16;5066504;28;20205;-85
2023/05/02 03:24:14;;;;;;;10.70;7.23;;;;;;;12.67;88.04;95011.75;5066747;28;20233;-86
2023/05/02 03:26:41;;;;;;;7.77;6.90;;;;;;;12.52;88.52;94983.47;5064720;28;20289;-85
2023/05/02 03:29:08;;;;;;;8.70;6.93;;;;;;;12.39;88.67;94972.44;5063295;28;20579;-86
2023/05/02 03:31:34;;;;;;;8.53;6.63;;;;;;;12.59;89.61;95001.66;5067152;28;20696;-87
2023/05/02 03:34:02;;;;;;;11.17;6.80;;;;;;;12.32;89.55;94959.50;5066028;28;20706;-88
2023/05/02 03:36:28;;;;;;;9.10;6.80;;;;;;;12.58;89.70;95009.72;5066364;28;20213;-89
2023/05/02 03:38:58;;;;;;;8.17;6.40;;;;;;;12.60;90.16;95007.66;5067152;28;20212;-89
2023/05/02 03:41:26;;;;;;;11.67;6.97;;;;;;;12.48;89.35;94978.94;5068858;28;20209;-87
2023/05/02 03:43:54;;;;;;;9.43;7.10;;;;;;;12.55;89.26;94991.91;5067924;28;20209;-86
2023/05/02 03:46:47;;;;;;;7.80;6.43;;;;;;;12.36;89.15;94965.88;5065852;28;20202;-84
2023/05/02 03:49:14;;;;;;;8.40;6.37;;;;;;;12.60;89.00;94999.84;5042003;28;20722;-86
2023/05/02 03:51:41;;;;;;;9.43;6.07;;;;;;;12.63;88.77;95008.03;5046118;28;20234;-85
2023/05/02 03:54:08;;;;;;;8.03;6.50;;;;;;;12.32;87.96;94962.09;5046422;28;20305;-85
2023/05/02 03:56:41;;;;;;;10.77;6.57;;;;;;;12.59;88.52;95011.28;5046198;28;20233;-86
2023/05/02 03:59:08;;;;;;;7.43;6.50;;;;;;;12.28;88.87;94967.97;5046248;28;20190;-87
2023/05/02 04:01:35;;;;;;;7.27;6.57;;;;;;;12.59;88.89;95006.06;5051939;28;20656;-81
2023/05/02 04:04:02;;;;;;;8.33;6.80;;;;;;;12.65;88.55;95010.41;5052548;28;20197;-82
2023/05/02 04:06:47;;;;;;;7.40;6.63;;;;;;;12.62;88.37;95009.03;5047393;28;20299;-81
2023/05/02 04:09:13;;;;;;;11.10;7.23;;;;;;;12.68;88.47;95017.78;5047618;28;20680;-82
2023/05/02 04:11:41;;;;;;;7.43;6.63;;;;;;;12.60;88.22;95007.66;5049048;28;20210;-82
2023/05/02 04:14:08;;;;;;;9.37;6.60;;;;;;;12.66;88.29;95019.81;5051368;28;20253;-83
2023/05/02 04:16:38;;;;;;;7.50;6.70;;;;;;;12.66;88.12;95014.59;5047839;28;20279;-85
2023/05/02 04:19:05;;;;;;;11.87;7.00;;;;;;;12.62;88.45;95016.06;5046857;28;20194;-83
2023/05/02 04:21:32;;;;;;;7.53;6.77;;;;;;;12.64;87.91;95014.03;5048810;28;20198;-82
2023/05/02 04:23:59;;;;;;;11.80;6.93;;;;;;;12.60;88.31;95010.28;5050879;28;20256;-83
2023/05/02 04:26:25;;;;;;;9.53;6.63;;;;;;;12.32;88.14;94975.13;5048700;28;20214;-83
2023/05/02 04:28:54;;;;;;;8.23;6.70;;;;;;;12.63;88.21;95015.03;5046369;28;20214;-84
2023/05/02 04:31:21;;;;;;;8.73;6.90;;;;;;;12.62;86.77;95003.81;5051331;28;20240;-83
2023/05/02 04:33:48;;;;;;;11.27;6.53;;;;;;;12.62;86.98;95008.22;5047222;28;20677;-83
2023/05/02 04:36:15;;;;;;;8.23;6.70;;;;;;;12.64;87.37;95007.00;5049310;28;20198;-81
2023/05/02 04:38:42;;;;;;;9.00;7.20;;;;;;;12.72;86.74;95014.53;5047389;28;20206;-82
2023/05/02 04:41:10;;;;;;;13.70;6.73;;;;;;;12.76;86.59;95025.28;5051710;28;20205;-81
2023/05/02 04:43:36;;;;;;;7.53;6.40;;;;;;;12.81;86.24;95022.81;5048686;28;20260;-81
2023/05/02 04:46:05;;;;;;;9.53;7.10;;;;;;;12.82;86.23;95017.38;5048293;28;20198;-81
2023/05/02 04:48:32;;;;;;;10.00;6.63;;;;;;;12.76;85.76;95017.47;5065121;28;20232;-81
2023/05/02 04:50:59;;;;;;;8.80;7.00;;;;;;;12.80;85.61;95018.63;5071233;28;20259;-82
2023/05/02 04:53:26;;;;;;;9.60;6.40;;;;;;;12.88;85.56;95032.13;5069761;28;20220;-84
2023/05/02 04:55:53;;;;;;;11.33;7.20;;;;;;;12.89;85.26;95027.72;5069284;28;20310;-86
2023/05/02 04:58:20;;;;;;;11.67;6.83;;;;;;;12.87;84.69;95034.97;5070858;28;20663;-86
2023/05/02 05:00:47;;;;;;;10.50;6.00;;;;;;;12.83;83.87;95016.38;5072663;28;20252;-86
2023/05/02 05:03:16;;;;;;;8.23;6.20;;;;;;;12.90;83.37;95029.31;5071391;28;20205;-85
2023/05/02 05:05:42;;;;;;;11.63;5.97;;;;;;;12.88;83.41;95021.69;5071048;28;20201;-86
2023/05/02 05:08:10;;;;;;;7.87;6.17;;;;;;;12.87;82.66;95016.72;5071053;28;20205;-87
2023/05/02 05:10:39;;;;;;;7.30;5.87;;;;;;;12.95;82.67;95019.81;5069872;28;20669;-87
2023/05/02 05:13:06;;;;;;;10.90;6.40;;;;;;;12.88;83.06;95016.50;5028738;28;20201;-88
2023/05/02 05:15:33;;;;;;;7.17;5.97;;;;;;;13.02;82.44;95017.09;5061012;28;20228;-89
2023/05/02 05:18:00;;;;;;;13.33;6.33;;;;;;;13.06;81.77;95019.03;5068379;28;20266;-81
2023/05/02 05:20:28;;;;;;;14.23;6.37;;;;;;;12.94;81.50;95006.97;5070248;28;20194;-81
2023/05/02 05:22:58;;;;;;;6.93;5.93;;;;;;;13.07;81.58;95023.25;5069203;28;20204;-89
2023/05/02 05:25:26;;;;;;;8.03;6.37;;;;;;;13.12;80.96;95017.38;5069928;28;20227;-88
2023/05/02 05:27:54;;;;;;;7.97;5.53;;;;;;;13.19;81.64;95030.34;5071108;28;20205;-89
2023/05/02 05:30:20;;;;;;;8.37;5.47;;;;;;;13.24;80.72;95023.41;5069782;28;20217;-88
2023/05/02 05:32:47;;;;;;;8.17;5.77;;;;;;;13.27;80.29;95030.00;5069520;28;20648;-88
2023/05/02 05:35:14;;;;;;;9.73;6.00;;;;;;;13.27;80.71;95033.41;5069411;28;20225;-89
2023/05/02 05:37:43;;;;;;;8.10;6.30;;;;;;;13.30;80.42;95040.00;5072291;28;20205;-88
2023/05/02 05:40:10;;;;;;;11.07;6.20;;;;;;;13.35;79.83;95038.28;5071556;28;20198;-89
2023/05/02 05:42:40;;;;;;;9.33;5.90;;;;;;;13.32;79.74;95038.75;5071318;28;20197;-88
2023/05/02 05:45:08;;;;;;;10.20;6.00;;;;;;;13.32;79.39;95040.56;5070269;28;20212;-88
2023/05/02 05:47:35;;;;;;;7.47;5.83;;;;;;;13.41;79.04;95044.44;5068495;28;20228;-88
2023/05/02 05:50:02;;;;;;;7.20;6.20;;;;;;;13.41;79.29;95050.44;5070739;28;20205;-88
2023/05/02 05:52:29;;;;;;;11.43;6.50;;;;;;;13.36;78.84;95044.31;5071795;28;20285;-88
2023/05/02 05:54:57;;;;;;;10.33;6.30;;;;;;;13.49;78.67;95051.94;5070890;28;20239;-88
2023/05/02 05:57:24;;;;;;;8.50;6.00;;;;;;;13.51;77.96;95055.09;5072396;28;20215;-88
2023/05/02 05:59:52;;;;;;;10.30;6.03;;;;;;;13.49;77.82;95044.88;5071690;28;20206;-90
2023/05/02 06:02:20;;;;;;;9.97;5.30;;;;;;;13.54;77.52;95050.22;5071431;28;20206;-90
2023/05/02 06:04:46;;;;;;;7.83;6.27;;;;;;;13.60;76.51;95056.34;5072367;28;20194;-89
2023/05/02 06:07:13;;;;;;;6.63;5.27;;;;;;;13.63;76.68;95046.25;5072246;28;20682;-90
2023/05/02 06:09:40;;;;;;;6.33;5.67;;;;;;;13.67;77.09;95059.66;5069922;28;20197;-89
2023/05/02 06:12:08;;;;;;;6.73;5.47;;;;;;;13.77;76.38;95061.69;5070135;28;20204;-90
2023/05/02 06:14:35;;;;;;;7.67;5.33;;;;;;;13.81;74.99;95063.63;5068389;28;20201;-89
2023/05/02 06:17:02;;;;;;;7.13;5.00;;;;;;;13.85;75.16;95064.00;5071966;28;20201;-87
2023/05/02 06:19:29;;;;;;;8.20;5.40;;;;;;;13.85;74.08;95061.38;5072397;28;20209;-89
2023/05/02 06:21:56;;;;;;;5.43;4.90;;;;;;;13.77;73.38;95040.78;5074267;28;20312;-90
2023/05/02 06:24:23;;;;;;;7.07;5.30;;;;;;;13.91;74.16;95065.69;5075177;28;20217;-93
2023/05/02 06:26:50;;;;;;;8.63;5.70;;;;;;;13.96;74.10;95060.56;5074063;28;20209;-91
2023/05/02 06:29:18;;;;;;;8.70;5.63;;;;;;;14.06;73.85;95052.94;5071589;28;20619;-89
2023/05/02 06:31:46;;;;;;;11.63;5.50;;;;;;;14.07;72.99;95047.50;5070047;28;20212;-82
2023/05/02 06:34:12;;;;;;;16.97;5.70;;;;;;;14.20;72.57;95062.91;5070499;28;20663;-83
2023/05/02 06:36:39;;;;;;;6.07;4.83;;;;;;;14.23;71.85;95055.66;5069012;28;20225;-82
2023/05/02 06:39:06;;;;;;;7.77;5.33;;;;;;;14.29;71.71;95052.09;5069332;28;20197;-81
2023/05/02 06:41:33;;;;;;;7.03;5.17;;;;;;;14.48;70.95;95050.97;5067320;28;20202;-84
2023/05/02 06:44:00;;;;;;;8.23;5.40;;;;;;;14.40;71.01;95046.88;5070911;28;20236;-83
2023/05/02 06:46:30;;;;;;;8.93;5.10;;;;;;;14.56;70.29;95055.81;5068701;28;20292;-82
2023/05/02 06:48:57;;;;;;;9.70;5.03;;;;;;;14.52;69.22;95034.56;5067127;28;20738;-88
2023/05/02 06:51:24;;;;;;;6.90;5.13;;;;;;;14.58;68.73;95046.72;5070379;28;20687;-82
2023/05/02 06:53:51;;;;;;;8.50;4.73;;;;;;;14.73;68.99;95054.84;5069799;28;20273;-83
2023/05/02 06:56:18;;;;;;;7.87;4.97;;;;;;;14.73;70.91;95049.63;5068361;28;20268;-84
2023/05/02 06:58:45;;;;;;;8.80;4.93;;;;;;;14.81;69.34;95053.69;5068886;28;20637;-83
2023/05/02 07:01:12;;;;;;;11.30;4.77;;;;;;;14.81;68.78;95037.19;5069906;28;20197;-81
2023/05/02 07:03:41;;;;;;;8.30;4.90;;;;;;;15.02;68.38;95053.03;5068906;28;20189;-82
2023/05/02 07:06:07;;;;;;;10.70;4.80;;;;;;;15.10;69.00;95050.03;5068283;28;20212;-82
2023/05/02 07:08:34;;;;;;;8.97;4.70;;;;;;;15.12;68.20;95049.81;5068443;28;20205;-82
2023/05/02 07:11:03;;;;;;;7.03;5.03;;;;;;;15.18;65.87;95051.47;5070236;28;20585;-82
2023/05/02 07:13:29;;;;;;;8.20;5.17;;;;;;;15.24;66.20;95060.97;5067834;28;20667;-82
2023/05/02 07:15:56;;;;;;;6.27;4.80;;;;;;;15.23;66.47;95060.22;5066723;28;20224;-81
2023/05/02 07:18:23;;;;;;;8.60;5.10;;;;;;;15.37;65.93;95059.91;5069260;28;20288;-87
2023/05/02 07:20:51;;;;;;;7.03;4.50;;;;;;;15.41;64.29;95053.94;5071129;28;20201;-88
2023/05/02 07:23:19;;;;;;;8.00;4.57;;;;;;;15.55;62.78;95065.75;5068054;28;20201;-85
2023/05/02 07:25:47;;;;;;;6.33;4.30;;;;;;;15.56;63.47;95066.50;5069487;28;20197;-87
2023/05/02 07:28:14;;;;;;;6.10;4.50;;;;;;;15.57;62.26;95066.28;5066006;28;20301;-87
2023/05/02 07:30:40;;;;;;;9.67;4.30;;;;;;;15.53;61.26;95048.66;5066534;28;20198;-85
2023/05/02 07:33:07;;;;;;;8.87;4.10;;;;;;;15.71;61.04;95064.94;5069568;28;20212;-88
2023/05/02 07:35:34;;;;;;;8.87;4.57;;;;;;;15.60;59.83;95042.22;5069026;28;20323;-83
2023/05/02 07:38:03;;;;;;;5.37;4.60;;;;;;;15.60;59.50;95023.91;5069625;28;20202;-88
2023/05/02 07:40:30;;;;;;;6.17;4.30;;;;;;;15.74;59.76;95043.50;5070243;28;20684;-87
2023/05/02 07:42:58;;;;;;;8.17;4.40;;;;;;;15.95;59.83;95072.63;5069646;28;20280;-88
2023/05/02 07:45:25;;;;;;;9.07;4.23;;;;;;;16.02;60.14;95078.47;5069205;28;20247;-83
2023/05/02 07:47:52;;;;;;;4.90;4.00;;;;;;;15.93;58.63;95056.34;5069759;28;20866;-86
2023/05/02 07:50:19;;;;;;;5.80;4.10;;;;;;;15.86;57.12;95035.53;5068169;28;20190;-85
2023/05/02 07:52:46;;;;;;;6.70;4.00;;;;;;;16.15;58.31;95076.31;5068627;28;20216;-88
2023/05/02 07:55:15;;;;;;;7.50;4.43;;;;;;;16.23;58.25;95082.97;5068743;28;20237;-87
2023/05/02 07:57:42;;;;;;;6.57;3.73;;;;;;;16.21;57.84;95056.19;5071651;28;20652;-82
2023/05/02 08:00:12;;;;;;;7.47;4.27;;;;;;;16.13;57.68;95027.78;5070884;28;20305;-86
2023/05/02 08:02:39;;;;;;;8.20;4.27;;;;;;;16.48;57.36;95065.72;5068760;28;20201;-85
2023/05/02 08:05:06;;;;;;;4.90;4.10;;;;;;;16.28;56.75;95014.84;5067337;28;20205;-83
2023/05/02 08:07:34;;;;;;;7.10;4.27;;;;;;;16.68;56.26;95064.44;5069031;28;20206;-85
2023/05/02 08:10:04;;;;;;;8.60;4.00;;;;;;;16.74;56.41;95063.41;5067014;28;20237;-86
2023/05/02 08:12:40;;;;;;;4.90;4.27;;;;;;;16.86;55.29;95057.00;5068570;28;20549;-85
2023/05/02 08:15:09;;;;;;;6.00;3.80;;;;;;;16.62;55.40;95024.22;5064109;28;20205;-85
2023/05/02 08:17:38;;;;;;;6.87;4.27;;;;;;;16.73;54.23;95036.41;5069077;28;20593;-84
2023/05/02 08:20:05;;;;;;;8.60;4.07;;;;;;;16.56;54.91;95006.81;5068433;28;20208;-88
2023/05/02 08:22:32;;;;;;;6.27;3.90;;;;;;;16.76;54.84;95035.91;5068408;28;20592;-88
2023/05/02 08:24:59;;;;;;;6.77;4.17;;;;;;;16.91;54.12;95059.69;5067942;28;20209;-83
2023/05/02 08:27:26;;;;;;;5.03;4.17;;;;;;;16.97;54.50;95052.66;5069590;28;20689;-85
2023/05/02 08:29:55;;;;;;;7.70;4.00;;;;;;;17.01;54.48;95067.69;5067593;28;20745;-86
2023/05/02 08:32:22;;;;;;;7.43;3.97;;;;;;;17.06;53.47;95066.13;5068317;28;20255;-89
2023/05/02 08:34:49;;;;;;;12.57;4.30;;;;;;;17.07;53.57;95067.72;5069761;28;20201;-88
2023/05/02 08:37:19;;;;;;;9.90;4.37;;;;;;;17.12;53.36;95065.94;5069063;28;20229;-84
2023/05/02 08:39:46;;;;;;;7.03;4.00;;;;;;;17.14;53.25;95069.13;5067685;28;20190;-83
2023/05/02 08:42:13;;;;;;;5.57;3.83;;;;;;;17.23;52.94;95062.34;5067599;28;20284;-83
2023/05/02 08:44:40;;;;;;;4.60;4.20;;;;;;;17.47;52.69;95068.09;5068668;28;20255;-83
2023/05/02 08:47:13;;;;;;;9.80;4.17;;;;;;;17.63;52.34;95066.44;5071872;28;20593;-83
2023/05/02 08:49:41;;;;;;;12.87;3.77;;;;;;;17.63;51.53;95043.56;5071455;28;20205;-86
2023/05/02 08:52:10;;;;;;;6.55;3.95;;;;;;;17.79;51.20;95047.88;5071734;28;20193;-87
2023/05/02 08:54:39;;;;;;;7.22;3.60;;;;;;;18.05;49.56;95061.97;5076507;28;20580;-87
2023/05/02 08:57:06;;;;;;;7.10;3.90;;;;;;;18.19;48.65;95068.38;5073068;28;20253;-87
2023/05/02 08:59:33;;;;;;;5.75;3.70;;;;;;;18.26;49.48;95061.06;5054410;28;20696;-84
2023/05/02 09:02:12;;;;;;;5.75;4.00;;;;;;;18.34;49.26;95062.41;5073768;28;20205;-83
2023/05/02 09:04:42;;;;;;;9.43;4.10;;;;;;;18.36;50.27;95069.00;5073389;28;20196;-85
2023/05/02 09:07:09;;;;;;;9.35;3.85;;;;;;;18.23;49.65;95040.53;5073172;28;20251;-84
2023/05/02 09:09:36;;;;;;;7.38;3.80;;;;;;;18.29;48.15;95038.69;5071592;28;20276;-83
2023/05/02 09:12:04;;;;;;;7.63;3.70;;;;;;;18.42;47.87;95054.81;5066416;28;20201;-83
2023/05/02 09:14:31;;;;;;;6.55;3.50;;;;;;;18.43;48.12;95051.16;5074161;28;20197;-82
2023/05/02 09:16:59;;;;;;;4.45;3.30;;;;;;;18.32;47.57;95036.34;5071690;28;20589;-82
2023/05/02 09:19:26;;;;;;;6.93;3.58;;;;;;;18.55;47.56;95050.97;5072056;28;20663;-82
2023/05/02 09:22:02;;;;;;;8.45;6.25;;;;;;;18.56;47.61;95042.00;5054782;28;20199;-89
2023/05/02 09:24:29;;;;;;;5.45;4.00;;;;;;;18.77;47.88;95061.31;5054883;28;20557;-89
2023/05/02 09:26:59;;;;;;;5.80;3.95;;;;;;;18.76;46.91;95054.47;5054737;28;20283;-88
2023/05/02 09:29:29;;;;;;;9.80;3.95;;;;;;;18.86;46.34;95055.28;5054606;28;20194;-88
2023/05/02 09:31:56;;;;;;;4.60;4.03;;;;;;;18.90;46.72;95053.72;5055154;28;20292;-88
2023/05/02 09:34:23;;;;;;;5.70;3.38;;;;;;;19.00;47.33;95050.31;5055100;28;20194;-88
2023/05/02 09:36:52;;;;;;;5.88;3.15;;;;;;;19.12;45.05;95040.31;5054800;28;20286;-88
2023/05/02 09:39:23;;;;;;;7.60;3.80;;;;;;;18.92;44.88;95003.41;5055963;28;20224;-88
2023/05/02 09:41:51;;;;;;;11.52;3.83;;;;;;;19.15;45.31;95048.50;5069914;28;20574;-90
2023/05/02 09:44:21;;;;;;;10.43;3.63;;;;;;;19.14;44.89;95049.53;5075341;28;20235;-88
2023/05/02 09:46:50;;;;;;;4.95;3.42;;;;;;;19.18;45.24;95021.63;5074774;28;20194;-89
2023/05/02 09:49:18;;;;;;;9.02;3.45;;;;;;;19.41;44.72;95022.19;5073855;28;20235;-87
2023/05/02 09:51:46;;;;;;;8.23;3.35;;;;;;;19.64;44.57;95032.22;5072927;28;20197;-86
2023/05/02 09:54:13;;;;;;;4.82;3.47;;;;;;;19.80;43.34;95039.03;5074542;28;20212;-88
2023/05/02 09:56:56;;;;;;;3.92;3.50;;;;;;;19.92;42.72;95034.28;5086917;28;20664;-84
2023/05/02 09:59:23;;;;;;;4.35;3.20;;;;;;;19.95;42.49;95023.19;5085056;28;20197;-90
2023/05/02 10:01:57;;;;;;;5.68;3.17;;;;;;;19.83;41.95;94991.81;5086465;28;20281;-87
2023/05/02 10:04:28;;;;;;;3.35;3.00;;;;;;;20.25;41.55;95040.84;5073569;28;20217;-88
2023/05/02 10:06:55;;;;;;;5.43;3.25;;;;;;;20.12;42.14;95007.84;5071745;28;20201;-87
2023/05/02 10:09:23;;;;;;;5.22;3.10;;;;;;;20.20;41.88;95033.69;5071040;28;20624;-86
2023/05/02 10:11:54;;;;;;;4.15;2.90;;;;;;;20.22;41.62;95030.81;5071893;28;20201;-82
2023/05/02 10:14:22;;;;;;;11.40;3.15;;;;;;;20.02;41.60;95012.38;5072645;28;20181;-82
2023/05/02 10:17:00;;;;;;;4.40;3.67;;;;;;;19.89;41.43;94997.88;5071148;28;20217;-90
2023/05/02 10:19:47;;;;;;;9.35;3.08;;;;;;;19.81;41.16;94975.47;5071893;28;20199;-91
2023/05/02 10:22:25;;;;;;;4.95;3.13;;;;;;;19.65;40.59;94941.50;5072246;28;20220;-86
2023/05/02 10:24:57;;;;;;;6.47;2.92;;;;;;;19.74;41.39;94939.88;5072369;28;20213;-87
2023/05/02 10:27:32;;;;;;;7.07;3.25;;;;;;;20.29;41.43;95010.19;5072696;28;20243;-84
2023/05/02 10:30:05;;;;;;;7.45;3.55;;;;;;;19.87;40.34;94936.69;5072211;28;20216;-87
2023/05/02 10:32:33;;;;;;;11.55;3.20;;;;;;;20.20;40.31;94988.81;5071081;28;20295;-85
2023/05/02 10:35:06;;;;;;;8.95;3.13;;;;;;;20.17;40.01;94973.50;5065022;28;20190;-84
2023/05/02 10:37:37;;;;;;;3.50;2.90;;;;;;;20.21;39.40;94976.41;5065910;28;20209;-86
2023/05/02 10:40:05;;;;;;;4.05;2.90;;;;;;;20.69;39.75;94999.47;5060379;28;20221;-86
2023/05/02 10:42:40;;;;;;;4.05;3.00;;;;;;;20.99;38.30;94995.06;5066862;28;20223;-86
2023/05/02 10:45:12;;;;;;;7.95;3.13;;;;;;;20.91;37.72;94972.66;5071658;28;20193;-85
2023/05/02 10:47:39;;;;;;;5.50;3.17;;;;;;;20.86;36.93;94962.94;5072211;28;20249;-86
2023/05/02 10:50:07;;;;;;;6.72;2.70;;;;;;;21.08;37.57;94982.88;5071693;28;20212;-85
2023/05/02 10:52:36;;;;;;;4.40;2.88;;;;;;;21.09;37.36;94987.13;5071143;28;20194;-84
2023/05/02 10:55:21;;;;;;;6.35;3.15;;;;;;;21.18;38.19;94966.97;5072764;28;20204;-81
2023/05/02 10:58:26;;;;;;;6.25;2.75;;;;;;;21.77;37.47;95006.41;5072174;28;20240;-82
2023/05/02 11:00:53;;;;;;;5.35;2.88;;;;;;;22.08;36.07;94967.22;5052040;28;20179;-81
2023/05/02 11:03:54;;;;;;;5.38;2.88;;;;;;;22.42;35.40;94952.75;5058768;28;20202;-85
2023/05/02 11:09:33;;;;;;;6.47;2.88;;;;;;;23.33;33.63;94999.25;5060219;28;20213;-86
2023/05/02 11:12:06;;;;;;;6.35;2.90;;;;;;;23.33;33.06;94993.16;5060513;28;20236;-83
2023/05/02 11:14:53;;;;;;;6.53;2.97;;;;;;;22.95;34.13;94953.41;5072330;28;20569;-80
2023/05/02 11:17:23;;;;;;;4.85;2.95;;;;;;;22.46;33.13;94907.94;5072029;28;20205;-88
2023/05/02 11:20:25;;;;;;;3.00;2.70;;;;;;;22.31;33.69;94914.22;5071183;28;20212;-90
2023/05/02 11:23:03;;;;;;;;;;;;;;;;;;;;;
2023/05/02 11:25:33;;;;;;;6.65;2.97;;;;;;;22.78;33.95;94954.97;5078302;28;20288;-83
2023/05/02 11:28:01;;;;;;;3.72;2.90;;;;;;;23.10;33.65;94976.25;5074329;28;20193;-80
2023/05/02 11:30:42;;;;;;;3.72;3.10;;;;;;;23.12;33.85;94955.53;5068414;28;20198;-91
2023/05/02 11:33:15;;;;;;;8.63;2.90;;;;;;;23.11;33.94;94924.78;5074579;28;20304;-91
2023/05/02 11:35:44;;;;;;;3.00;2.63;;;;;;;23.59;33.29;94968.59;5081530;28;20259;-92
2023/05/02 11:38:13;;;;;;;7.50;2.67;;;;;;;23.74;32.60;94972.88;5066236;28;20991;-88
2023/05/02 11:40:40;;;;;;;5.63;3.03;;;;;;;23.86;33.65;94972.41;5079953;28;20201;-89
2023/05/02 11:43:15;;;;;;;6.50;3.17;;;;;;;23.95;32.32;94955.50;5071678;28;20205;-90
2023/05/02 11:45:43;;;;;;;5.22;2.63;;;;;;;23.89;32.60;94951.34;5071225;28;20192;-88
2023/05/02 11:48:12;;;;;;;3.00;2.75;;;;;;;24.14;33.09;94942.13;5079247;28;20229;-88